sensor_id;sensor_type;location;lat;lon;timestamp;P1;durP1;ratioP1;P2;durP2;ratioP2
22774;SDS011;11554;51.106;3.684;2022-12-07T00:00:00;10.20;;;4.40;;
22774;SDS011;11554;51.106;3.684;2022-12-07T00:05:00;10.20;;;4.40;;
22774;SDS011;11554;51.106;3.684;2022-12-07T00:10:00;7.40;;;3.60;;
22774;SDS011;11554;51.106;3.684;2022-12-07T00:15:00;7.40;;;3.60;;
22774;SDS011;11554;51.106;3.684;2022-12-07T00:20:00;8.30;;;3.00;;
22774;SDS011;11554;51.106;3.684;2022-12-07T00:25:00;8.30;;;3.00;;
22774;SDS011;11554;51.106;3.684;2022-12-07T00:30:00;6.30;;;2.80;;
22774;SDS011;11554;51.106;3.684;2022-12-07T00:35:00;6.30;;;2.80;;
22774;SDS011;11554;51.106;3.684;2022-12-07T00:40:00;6.60;;;2.60;;
22774;SDS011;11554;51.106;3.684;2022-12-07T00:45:00;6.60;;;2.60;;
22774;SDS011;11554;51.106;3.684;2022-12-07T00:50:00;4.90;;;2.30;;
22774;SDS011;11554;51.106;3.684;2022-12-07T00:55:00;4.90;;;2.30;;
22774;SDS011;11554;51.106;3.684;2022-12-07T01:00:00;5.40;;;2.20;;
22774;SDS011;11554;51.106;3.684;2022-12-07T01:05:00;5.40;;;2.20;;
22774;SDS011;11554;51.106;3.684;2022-12-07T01:10:00;6.40;;;2.20;;
22774;SDS011;11554;51.106;3.684;2022-12-07T01:15:00;6.40;;;2.20;;
22774;SDS011;11554;51.106;3.684;2022-12-07T01:20:00;8.50;;;3.80;;
22774;SDS011;11554;51.106;3.684;2022-12-07T01:25:00;8.50;;;3.80;;
22774;SDS011;11554;51.106;3.684;2022-12-07T01:30:00;8.70;;;3.60;;
22774;SDS011;11554;51.106;3.684;2022-12-07T01:35:00;8.70;;;3.60;;
22774;SDS011;11554;51.106;3.684;2022-12-07T01:40:00;7.10;;;3.70;;
22774;SDS011;11554;51.106;3.684;2022-12-07T01:50:00;8.00;;;3.80;;
22774;SDS011;11554;51.106;3.684;2022-12-07T01:55:03;8.00;;;3.80;;
22774;SDS011;11554;51.106;3.684;2022-12-07T02:00:01;5.20;;;3.00;;
22774;SDS011;11554;51.106;3.684;2022-12-07T02:05:02;5.20;;;3.00;;
22774;SDS011;11554;51.106;3.684;2022-12-07T02:10:12;7.20;;;3.30;;
22774;SDS011;11554;51.106;3.684;2022-12-07T02:15:00;7.20;;;3.30;;
22774;SDS011;11554;51.106;3.684;2022-12-07T02:20:13;6.60;;;3.50;;
22774;SDS011;11554;51.106;3.684;2022-12-07T02:25:08;6.60;;;3.50;;
22774;SDS011;11554;51.106;3.684;2022-12-07T02:30:02;6.30;;;3.20;;
22774;SDS011;11554;51.106;3.684;2022-12-07T02:35:05;6.30;;;3.20;;
22774;SDS011;11554;51.106;3.684;2022-12-07T02:40:05;7.30;;;4.20;;
22774;SDS011;11554;51.106;3.684;2022-12-07T02:45:00;7.30;;;4.20;;
22774;SDS011;11554;51.106;3.684;2022-12-07T02:50:03;8.00;;;4.00;;
22774;SDS011;11554;51.106;3.684;2022-12-07T02:55:00;8.00;;;4.00;;
22774;SDS011;11554;51.106;3.684;2022-12-07T03:00:04;8.20;;;4.20;;
22774;SDS011;11554;51.106;3.684;2022-12-07T03:05:11;8.20;;;4.20;;
22774;SDS011;11554;51.106;3.684;2022-12-07T03:10:03;9.20;;;3.40;;
22774;SDS011;11554;51.106;3.684;2022-12-07T03:15:04;9.20;;;3.40;;
22774;SDS011;11554;51.106;3.684;2022-12-07T03:20:02;5.00;;;2.60;;
22774;SDS011;11554;51.106;3.684;2022-12-07T03:25:04;5.00;;;2.60;;
22774;SDS011;11554;51.106;3.684;2022-12-07T03:30:03;5.80;;;2.50;;
22774;SDS011;11554;51.106;3.684;2022-12-07T03:35:05;5.80;;;2.50;;
22774;SDS011;11554;51.106;3.684;2022-12-07T03:40:06;5.50;;;2.20;;
22774;SDS011;11554;51.106;3.684;2022-12-07T03:45:01;5.50;;;2.20;;
22774;SDS011;11554;51.106;3.684;2022-12-07T03:50:04;4.20;;;1.30;;
22774;SDS011;11554;51.106;3.684;2022-12-07T03:55:04;4.20;;;1.30;;
22774;SDS011;11554;51.106;3.684;2022-12-07T04:00:02;7.80;;;1.40;;
22774;SDS011;11554;51.106;3.684;2022-12-07T04:05:01;7.80;;;1.40;;
22774;SDS011;11554;51.106;3.684;2022-12-07T04:10:00;8.40;;;2.10;;
22774;SDS011;11554;51.106;3.684;2022-12-07T04:15:00;8.40;;;2.10;;
22774;SDS011;11554;51.106;3.684;2022-12-07T04:20:00;5.50;;;1.80;;
22774;SDS011;11554;51.106;3.684;2022-12-07T04:25:00;5.50;;;1.80;;
22774;SDS011;11554;51.106;3.684;2022-12-07T04:30:00;4.10;;;1.30;;
22774;SDS011;11554;51.106;3.684;2022-12-07T04:35:00;4.10;;;1.30;;
22774;SDS011;11554;51.106;3.684;2022-12-07T04:40:00;7.10;;;1.90;;
22774;SDS011;11554;51.106;3.684;2022-12-07T04:45:00;7.10;;;1.90;;
22774;SDS011;11554;51.106;3.684;2022-12-07T04:50:00;5.80;;;1.50;;
22774;SDS011;11554;51.106;3.684;2022-12-07T04:55:00;5.80;;;1.50;;
22774;SDS011;11554;51.106;3.684;2022-12-07T05:00:00;7.60;;;2.50;;
22774;SDS011;11554;51.106;3.684;2022-12-07T05:05:00;7.60;;;2.50;;
22774;SDS011;11554;51.106;3.684;2022-12-07T05:10:00;13.00;;;5.10;;
22774;SDS011;11554;51.106;3.684;2022-12-07T05:15:00;13.00;;;5.10;;
22774;SDS011;11554;51.106;3.684;2022-12-07T05:20:00;9.80;;;6.60;;
22774;SDS011;11554;51.106;3.684;2022-12-07T05:25:00;9.80;;;6.60;;
22774;SDS011;11554;51.106;3.684;2022-12-07T05:30:00;7.00;;;2.50;;
22774;SDS011;11554;51.106;3.684;2022-12-07T05:35:00;7.00;;;2.50;;
22774;SDS011;11554;51.106;3.684;2022-12-07T05:40:00;5.30;;;1.60;;
22774;SDS011;11554;51.106;3.684;2022-12-07T05:45:00;5.30;;;1.60;;
22774;SDS011;11554;51.106;3.684;2022-12-07T05:50:00;4.70;;;1.90;;
22774;SDS011;11554;51.106;3.684;2022-12-07T05:55:00;4.70;;;1.90;;
22774;SDS011;11554;51.106;3.684;2022-12-07T06:00:00;5.80;;;1.80;;
22774;SDS011;11554;51.106;3.684;2022-12-07T06:05:00;5.80;;;1.80;;
22774;SDS011;11554;51.106;3.684;2022-12-07T06:10:00;8.00;;;2.70;;
22774;SDS011;11554;51.106;3.684;2022-12-07T06:15:00;8.00;;;2.70;;
22774;SDS011;11554;51.106;3.684;2022-12-07T06:20:00;6.00;;;2.80;;
22774;SDS011;11554;51.106;3.684;2022-12-07T06:25:00;6.00;;;2.80;;
22774;SDS011;11554;51.106;3.684;2022-12-07T06:30:00;7.60;;;2.60;;
22774;SDS011;11554;51.106;3.684;2022-12-07T06:35:00;7.60;;;2.60;;
22774;SDS011;11554;51.106;3.684;2022-12-07T06:40:00;8.40;;;3.20;;
22774;SDS011;11554;51.106;3.684;2022-12-07T06:45:00;8.40;;;3.20;;
22774;SDS011;11554;51.106;3.684;2022-12-07T06:50:00;11.60;;;5.10;;
22774;SDS011;11554;51.106;3.684;2022-12-07T06:55:00;11.60;;;5.10;;
22774;SDS011;11554;51.106;3.684;2022-12-07T07:00:00;7.00;;;3.10;;
22774;SDS011;11554;51.106;3.684;2022-12-07T07:05:00;7.00;;;3.10;;
22774;SDS011;11554;51.106;3.684;2022-12-07T07:10:00;7.60;;;3.60;;
22774;SDS011;11554;51.106;3.684;2022-12-07T07:15:00;7.60;;;3.60;;
22774;SDS011;11554;51.106;3.684;2022-12-07T07:20:00;7.40;;;3.40;;
22774;SDS011;11554;51.106;3.684;2022-12-07T07:25:00;7.40;;;3.40;;
22774;SDS011;11554;51.106;3.684;2022-12-07T07:30:00;10.60;;;3.10;;
22774;SDS011;11554;51.106;3.684;2022-12-07T07:35:00;10.60;;;3.10;;
22774;SDS011;11554;51.106;3.684;2022-12-07T07:40:00;10.90;;;3.60;;
22774;SDS011;11554;51.106;3.684;2022-12-07T07:45:00;10.90;;;3.60;;
22774;SDS011;11554;51.106;3.684;2022-12-07T07:50:00;11.80;;;3.80;;
22774;SDS011;11554;51.106;3.684;2022-12-07T07:55:00;11.80;;;3.80;;
22774;SDS011;11554;51.106;3.684;2022-12-07T08:00:00;8.90;;;3.10;;
22774;SDS011;11554;51.106;3.684;2022-12-07T08:05:00;8.90;;;3.10;;
22774;SDS011;11554;51.106;3.684;2022-12-07T08:10:00;7.00;;;2.70;;
22774;SDS011;11554;51.106;3.684;2022-12-07T08:15:00;7.00;;;2.70;;
22774;SDS011;11554;51.106;3.684;2022-12-07T08:20:00;7.30;;;3.20;;
22774;SDS011;11554;51.106;3.684;2022-12-07T08:25:00;7.30;;;3.20;;
22774;SDS011;11554;51.106;3.684;2022-12-07T08:30:00;6.80;;;3.70;;
22774;SDS011;11554;51.106;3.684;2022-12-07T08:35:00;6.80;;;3.70;;
22774;SDS011;11554;51.106;3.684;2022-12-07T08:40:00;10.50;;;2.80;;
22774;SDS011;11554;51.106;3.684;2022-12-07T08:45:00;10.50;;;2.80;;
22774;SDS011;11554;51.106;3.684;2022-12-07T08:50:01;7.50;;;3.20;;
22774;SDS011;11554;51.106;3.684;2022-12-07T08:55:00;7.50;;;3.20;;
22774;SDS011;11554;51.106;3.684;2022-12-07T09:00:00;9.30;;;3.10;;
22774;SDS011;11554;51.106;3.684;2022-12-07T09:05:00;9.30;;;3.10;;
22774;SDS011;11554;51.106;3.684;2022-12-07T09:10:00;10.40;;;4.50;;
22774;SDS011;11554;51.106;3.684;2022-12-07T09:15:00;10.40;;;4.50;;
22774;SDS011;11554;51.106;3.684;2022-12-07T09:20:00;10.30;;;3.80;;
22774;SDS011;11554;51.106;3.684;2022-12-07T09:25:01;10.30;;;3.80;;
22774;SDS011;11554;51.106;3.684;2022-12-07T09:30:00;9.00;;;2.40;;
22774;SDS011;11554;51.106;3.684;2022-12-07T09:35:00;9.00;;;2.40;;
22774;SDS011;11554;51.106;3.684;2022-12-07T09:40:00;10.30;;;3.70;;
22774;SDS011;11554;51.106;3.684;2022-12-07T09:45:00;10.30;;;3.70;;
22774;SDS011;11554;51.106;3.684;2022-12-07T09:50:04;8.20;;;3.30;;
22774;SDS011;11554;51.106;3.684;2022-12-07T09:55:00;8.20;;;3.30;;
22774;SDS011;11554;51.106;3.684;2022-12-07T10:00:03;12.70;;;3.40;;
22774;SDS011;11554;51.106;3.684;2022-12-07T10:05:00;12.70;;;3.40;;
22774;SDS011;11554;51.106;3.684;2022-12-07T10:10:03;8.80;;;3.90;;
22774;SDS011;11554;51.106;3.684;2022-12-07T10:15:03;8.80;;;3.90;;
22774;SDS011;11554;51.106;3.684;2022-12-07T10:20:14;10.80;;;3.90;;
22774;SDS011;11554;51.106;3.684;2022-12-07T10:25:08;10.80;;;3.90;;
22774;SDS011;11554;51.106;3.684;2022-12-07T10:30:07;21.70;;;5.90;;
22774;SDS011;11554;51.106;3.684;2022-12-07T10:35:18;21.70;;;5.90;;
22774;SDS011;11554;51.106;3.684;2022-12-07T10:40:00;11.10;;;3.90;;
22774;SDS011;11554;51.106;3.684;2022-12-07T10:45:09;11.10;;;3.90;;
22774;SDS011;11554;51.106;3.684;2022-12-07T10:50:14;8.30;;;2.70;;
22774;SDS011;11554;51.106;3.684;2022-12-07T10:55:11;8.30;;;2.70;;
22774;SDS011;11554;51.106;3.684;2022-12-07T11:00:07;9.70;;;3.20;;
22774;SDS011;11554;51.106;3.684;2022-12-07T11:05:09;9.70;;;3.20;;
22774;SDS011;11554;51.106;3.684;2022-12-07T11:10:06;7.70;;;2.80;;
22774;SDS011;11554;51.106;3.684;2022-12-07T11:15:07;7.70;;;2.80;;
22774;SDS011;11554;51.106;3.684;2022-12-07T11:20:05;6.70;;;2.40;;
22774;SDS011;11554;51.106;3.684;2022-12-07T11:25:14;6.70;;;2.40;;
22774;SDS011;11554;51.106;3.684;2022-12-07T11:30:12;9.10;;;3.20;;
22774;SDS011;11554;51.106;3.684;2022-12-07T11:35:08;9.10;;;3.20;;
22774;SDS011;11554;51.106;3.684;2022-12-07T11:40:03;8.00;;;2.40;;
22774;SDS011;11554;51.106;3.684;2022-12-07T11:45:03;8.00;;;2.40;;
22774;SDS011;11554;51.106;3.684;2022-12-07T11:50:10;9.70;;;1.90;;
22774;SDS011;11554;51.106;3.684;2022-12-07T11:55:02;9.70;;;1.90;;
22774;SDS011;11554;51.106;3.684;2022-12-07T12:00:03;7.20;;;2.00;;
22774;SDS011;11554;51.106;3.684;2022-12-07T12:05:07;7.20;;;2.00;;
22774;SDS011;11554;51.106;3.684;2022-12-07T12:10:03;5.50;;;1.60;;
22774;SDS011;11554;51.106;3.684;2022-12-07T12:15:16;5.50;;;1.60;;
22774;SDS011;11554;51.106;3.684;2022-12-07T12:20:05;5.50;;;1.20;;
22774;SDS011;11554;51.106;3.684;2022-12-07T12:25:04;5.50;;;1.20;;
22774;SDS011;11554;51.106;3.684;2022-12-07T12:30:02;5.60;;;1.30;;
22774;SDS011;11554;51.106;3.684;2022-12-07T12:35:18;5.60;;;1.30;;
22774;SDS011;11554;51.106;3.684;2022-12-07T12:50:15;16.10;;;6.70;;
22774;SDS011;11554;51.106;3.684;2022-12-07T12:55:11;16.10;;;6.70;;
22774;SDS011;11554;51.106;3.684;2022-12-07T13:00:15;14.40;;;5.60;;
22774;SDS011;11554;51.106;3.684;2022-12-07T13:05:01;14.40;;;5.60;;
22774;SDS011;11554;51.106;3.684;2022-12-07T13:10:01;7.70;;;3.90;;
22774;SDS011;11554;51.106;3.684;2022-12-07T13:15:00;7.70;;;3.90;;
22774;SDS011;11554;51.106;3.684;2022-12-07T13:20:02;8.50;;;3.60;;
22774;SDS011;11554;51.106;3.684;2022-12-07T13:25:05;8.50;;;3.60;;
22774;SDS011;11554;51.106;3.684;2022-12-07T13:30:00;14.10;;;4.80;;
22774;SDS011;11554;51.106;3.684;2022-12-07T13:35:00;14.10;;;4.80;;
22774;SDS011;11554;51.106;3.684;2022-12-07T13:45:17;4.80;;;0.90;;
22774;SDS011;11554;51.106;3.684;2022-12-07T13:50:00;3.20;;;0.80;;
22774;SDS011;11554;51.106;3.684;2022-12-07T13:55:05;3.20;;;0.80;;
22774;SDS011;11554;51.106;3.684;2022-12-07T14:00:01;3.90;;;0.70;;
22774;SDS011;11554;51.106;3.684;2022-12-07T14:05:09;3.90;;;0.70;;
22774;SDS011;11554;51.106;3.684;2022-12-07T14:10:01;4.10;;;0.80;;
22774;SDS011;11554;51.106;3.684;2022-12-07T14:15:01;4.10;;;0.80;;
22774;SDS011;11554;51.106;3.684;2022-12-07T14:20:02;3.90;;;1.00;;
22774;SDS011;11554;51.106;3.684;2022-12-07T14:25:14;3.90;;;1.00;;
22774;SDS011;11554;51.106;3.684;2022-12-07T14:30:00;4.30;;;1.10;;
22774;SDS011;11554;51.106;3.684;2022-12-07T14:35:02;4.30;;;1.10;;
22774;SDS011;11554;51.106;3.684;2022-12-07T14:40:00;3.20;;;0.70;;
22774;SDS011;11554;51.106;3.684;2022-12-07T14:45:00;3.20;;;0.70;;
22774;SDS011;11554;51.106;3.684;2022-12-07T14:50:00;3.90;;;0.80;;
22774;SDS011;11554;51.106;3.684;2022-12-07T14:55:00;3.90;;;0.80;;
22774;SDS011;11554;51.106;3.684;2022-12-07T15:00:00;4.50;;;1.40;;
22774;SDS011;11554;51.106;3.684;2022-12-07T15:05:00;4.50;;;1.40;;
22774;SDS011;11554;51.106;3.684;2022-12-07T15:10:00;4.90;;;2.30;;
22774;SDS011;11554;51.106;3.684;2022-12-07T15:15:00;4.90;;;2.30;;
22774;SDS011;11554;51.106;3.684;2022-12-07T15:20:00;8.10;;;2.70;;
22774;SDS011;11554;51.106;3.684;2022-12-07T15:25:00;8.10;;;2.70;;
22774;SDS011;11554;51.106;3.684;2022-12-07T15:30:00;5.30;;;2.20;;
22774;SDS011;11554;51.106;3.684;2022-12-07T15:35:00;5.30;;;2.20;;
22774;SDS011;11554;51.106;3.684;2022-12-07T15:40:00;4.90;;;1.80;;
22774;SDS011;11554;51.106;3.684;2022-12-07T15:45:00;4.90;;;1.80;;
22774;SDS011;11554;51.106;3.684;2022-12-07T15:50:00;10.50;;;4.90;;
22774;SDS011;11554;51.106;3.684;2022-12-07T15:55:00;10.50;;;4.90;;
22774;SDS011;11554;51.106;3.684;2022-12-07T16:00:00;8.90;;;6.00;;
22774;SDS011;11554;51.106;3.684;2022-12-07T16:05:00;8.90;;;6.00;;
22774;SDS011;11554;51.106;3.684;2022-12-07T16:10:00;13.90;;;11.50;;
22774;SDS011;11554;51.106;3.684;2022-12-07T16:15:00;13.90;;;11.50;;
22774;SDS011;11554;51.106;3.684;2022-12-07T16:20:00;9.90;;;7.20;;
22774;SDS011;11554;51.106;3.684;2022-12-07T16:25:00;9.90;;;7.20;;
22774;SDS011;11554;51.106;3.684;2022-12-07T16:30:00;20.60;;;11.70;;
22774;SDS011;11554;51.106;3.684;2022-12-07T16:35:00;20.60;;;11.70;;
22774;SDS011;11554;51.106;3.684;2022-12-07T16:40:00;12.30;;;8.00;;
22774;SDS011;11554;51.106;3.684;2022-12-07T16:45:02;12.30;;;8.00;;
22774;SDS011;11554;51.106;3.684;2022-12-07T16:50:00;12.40;;;8.60;;
22774;SDS011;11554;51.106;3.684;2022-12-07T16:55:00;12.40;;;8.60;;
22774;SDS011;11554;51.106;3.684;2022-12-07T17:00:00;40.40;;;25.20;;
22774;SDS011;11554;51.106;3.684;2022-12-07T17:05:00;40.40;;;25.20;;
22774;SDS011;11554;51.106;3.684;2022-12-07T17:10:00;28.30;;;17.90;;
22774;SDS011;11554;51.106;3.684;2022-12-07T17:15:00;28.30;;;17.90;;
22774;SDS011;11554;51.106;3.684;2022-12-07T17:20:00;16.00;;;10.30;;
22774;SDS011;11554;51.106;3.684;2022-12-07T17:25:00;16.00;;;10.30;;
22774;SDS011;11554;51.106;3.684;2022-12-07T17:30:00;15.20;;;7.70;;
22774;SDS011;11554;51.106;3.684;2022-12-07T17:35:00;15.20;;;7.70;;
22774;SDS011;11554;51.106;3.684;2022-12-07T17:40:00;12.20;;;7.50;;
22774;SDS011;11554;51.106;3.684;2022-12-07T17:45:00;12.20;;;7.50;;
22774;SDS011;11554;51.106;3.684;2022-12-07T17:50:00;13.00;;;7.00;;
22774;SDS011;11554;51.106;3.684;2022-12-07T17:55:00;13.00;;;7.00;;
22774;SDS011;11554;51.106;3.684;2022-12-07T18:00:00;16.30;;;8.20;;
22774;SDS011;11554;51.106;3.684;2022-12-07T18:05:00;16.30;;;8.20;;
22774;SDS011;11554;51.106;3.684;2022-12-07T18:10:00;14.30;;;7.30;;
22774;SDS011;11554;51.106;3.684;2022-12-07T18:15:00;14.30;;;7.30;;
22774;SDS011;11554;51.106;3.684;2022-12-07T18:20:00;17.80;;;10.70;;
22774;SDS011;11554;51.106;3.684;2022-12-07T18:25:00;17.80;;;10.70;;
22774;SDS011;11554;51.106;3.684;2022-12-07T18:30:00;25.00;;;13.60;;
22774;SDS011;11554;51.106;3.684;2022-12-07T18:35:00;25.00;;;13.60;;
22774;SDS011;11554;51.106;3.684;2022-12-07T18:40:00;11.50;;;7.30;;
22774;SDS011;11554;51.106;3.684;2022-12-07T18:45:00;11.50;;;7.30;;
22774;SDS011;11554;51.106;3.684;2022-12-07T18:50:00;17.70;;;11.50;;
22774;SDS011;11554;51.106;3.684;2022-12-07T18:55:00;17.70;;;11.50;;
22774;SDS011;11554;51.106;3.684;2022-12-07T19:00:00;20.10;;;13.20;;
22774;SDS011;11554;51.106;3.684;2022-12-07T19:05:00;20.10;;;13.20;;
22774;SDS011;11554;51.106;3.684;2022-12-07T19:10:00;15.90;;;9.40;;
22774;SDS011;11554;51.106;3.684;2022-12-07T19:15:00;15.90;;;9.40;;
22774;SDS011;11554;51.106;3.684;2022-12-07T19:20:01;20.90;;;11.50;;
22774;SDS011;11554;51.106;3.684;2022-12-07T19:25:00;20.90;;;11.50;;
22774;SDS011;11554;51.106;3.684;2022-12-07T19:30:00;21.40;;;10.50;;
22774;SDS011;11554;51.106;3.684;2022-12-07T19:35:00;21.40;;;10.50;;
22774;SDS011;11554;51.106;3.684;2022-12-07T19:40:00;11.10;;;7.70;;
22774;SDS011;11554;51.106;3.684;2022-12-07T19:45:00;11.10;;;7.70;;
22774;SDS011;11554;51.106;3.684;2022-12-07T19:50:00;11.60;;;6.60;;
22774;SDS011;11554;51.106;3.684;2022-12-07T19:55:00;11.60;;;6.60;;
22774;SDS011;11554;51.106;3.684;2022-12-07T20:00:00;12.50;;;7.20;;
22774;SDS011;11554;51.106;3.684;2022-12-07T20:05:00;12.50;;;7.20;;
22774;SDS011;11554;51.106;3.684;2022-12-07T20:10:00;13.20;;;8.10;;
22774;SDS011;11554;51.106;3.684;2022-12-07T20:15:00;13.20;;;8.10;;
22774;SDS011;11554;51.106;3.684;2022-12-07T20:20:00;13.50;;;7.60;;
22774;SDS011;11554;51.106;3.684;2022-12-07T20:25:00;13.50;;;7.60;;
22774;SDS011;11554;51.106;3.684;2022-12-07T20:30:00;8.60;;;4.70;;
22774;SDS011;11554;51.106;3.684;2022-12-07T20:35:00;8.60;;;4.70;;
22774;SDS011;11554;51.106;3.684;2022-12-07T20:40:00;8.80;;;4.30;;
22774;SDS011;11554;51.106;3.684;2022-12-07T20:45:00;8.80;;;4.30;;
22774;SDS011;11554;51.106;3.684;2022-12-07T20:50:00;7.70;;;4.70;;
22774;SDS011;11554;51.106;3.684;2022-12-07T20:55:00;7.70;;;4.70;;
22774;SDS011;11554;51.106;3.684;2022-12-07T21:00:00;19.20;;;9.70;;
22774;SDS011;11554;51.106;3.684;2022-12-07T21:05:00;19.20;;;9.70;;
22774;SDS011;11554;51.106;3.684;2022-12-07T21:10:00;9.90;;;5.60;;
22774;SDS011;11554;51.106;3.684;2022-12-07T21:15:00;9.90;;;5.60;;
22774;SDS011;11554;51.106;3.684;2022-12-07T21:20:00;9.90;;;5.00;;
22774;SDS011;11554;51.106;3.684;2022-12-07T21:25:00;9.90;;;5.00;;
22774;SDS011;11554;51.106;3.684;2022-12-07T21:30:00;9.70;;;5.30;;
22774;SDS011;11554;51.106;3.684;2022-12-07T21:35:00;9.70;;;5.30;;
22774;SDS011;11554;51.106;3.684;2022-12-07T21:40:00;13.90;;;7.70;;
22774;SDS011;11554;51.106;3.684;2022-12-07T21:45:00;10.30;;;6.00;;
22774;SDS011;11554;51.106;3.684;2022-12-07T21:50:00;10.30;;;6.00;;
22774;SDS011;11554;51.106;3.684;2022-12-07T21:55:00;12.70;;;7.70;;
22774;SDS011;11554;51.106;3.684;2022-12-07T22:00:00;12.70;;;7.70;;
22774;SDS011;11554;51.106;3.684;2022-12-07T22:05:00;16.10;;;10.50;;
22774;SDS011;11554;51.106;3.684;2022-12-07T22:10:00;16.10;;;10.50;;
22774;SDS011;11554;51.106;3.684;2022-12-07T22:15:00;19.40;;;11.80;;
22774;SDS011;11554;51.106;3.684;2022-12-07T22:20:00;19.40;;;11.80;;
22774;SDS011;11554;51.106;3.684;2022-12-07T22:25:00;20.40;;;12.60;;
22774;SDS011;11554;51.106;3.684;2022-12-07T22:30:00;20.40;;;12.60;;
22774;SDS011;11554;51.106;3.684;2022-12-07T22:35:00;21.10;;;11.80;;
22774;SDS011;11554;51.106;3.684;2022-12-07T22:40:00;21.10;;;11.80;;
22774;SDS011;11554;51.106;3.684;2022-12-07T22:45:00;23.10;;;11.80;;
22774;SDS011;11554;51.106;3.684;2022-12-07T22:50:00;23.10;;;11.80;;
22774;SDS011;11554;51.106;3.684;2022-12-07T22:55:00;18.90;;;11.60;;
22774;SDS011;11554;51.106;3.684;2022-12-07T23:00:00;18.90;;;11.60;;
22774;SDS011;11554;51.106;3.684;2022-12-07T23:05:00;18.40;;;11.00;;
22774;SDS011;11554;51.106;3.684;2022-12-07T23:10:00;18.40;;;11.00;;
22774;SDS011;11554;51.106;3.684;2022-12-07T23:15:00;16.30;;;9.70;;
22774;SDS011;11554;51.106;3.684;2022-12-07T23:20:00;16.30;;;9.70;;
22774;SDS011;11554;51.106;3.684;2022-12-07T23:25:00;18.00;;;9.80;;
22774;SDS011;11554;51.106;3.684;2022-12-07T23:30:00;18.00;;;9.80;;
22774;SDS011;11554;51.106;3.684;2022-12-07T23:35:00;15.20;;;8.50;;
22774;SDS011;11554;51.106;3.684;2022-12-07T23:40:00;15.20;;;8.50;;
22774;SDS011;11554;51.106;3.684;2022-12-07T23:45:00;13.30;;;7.90;;
22774;SDS011;11554;51.106;3.684;2022-12-07T23:50:00;13.30;;;7.90;;
22774;SDS011;11554;51.106;3.684;2022-12-07T23:55:00;13.70;;;7.70;;
